Contact Us:
Email: info@sawbill.com
Phone: (218)663-7150
Fax: (218)663-7980
Mail: 4620 Sawbill Trail
Box 2129
Tofte, MN 55615


Powered by
Movable Type 3.15
 
Sawbill Weather History Archives: February 2011
Current Sawbill Weather History | « January 2011 | March 2011 »


Date

High
Temperature

Low
Temperature

Barometric
Pressure

Relative
Humidity 7AM

9 AM
Temperature

Moisture

Snow

2/28/11 24 3 29.62 59% 13 0
2/27/11 20 1 29.80 62% 3 Trace Trace
2/26/11 8 -18 29.38 80% 3 0
2/25/11 3 -19 29.80 46% -18 0
2/24/11 16 -9 29.97 46% -9 0
2/23/11 24 16 29.85 76% 16 .3" 4"
2/22/11 22 13 29.80 80% 20 Trace Trace
2/21/11 20 8 30.00 65% 13 Trace Trace
2/20/11 15 3 29.88 50% 8 0
2/19/11 20 -1 30.03 70% 11 .07" 2"
2/18/11 11 -1 30.15 64% -1 0
2/17/11 38 3 29.41 64% 3 1.5" 2"
2/16/11 53 31 29.26 98% 36 Trace
2/15/11 36 30 29.56 82% 31 Trace
2/14/11 28 17 29.68 80% 28 0
2/13/11 35 17 29.80 75% 17 Trace
2/12/11 25 3 29.23 94% 25 0
2/11/11 18 -8 29.68 55% 3 Trace Trace
2/10/11 1 -17 29.38 71% -8 0
2/9/11 0 -12 29.62 67% -12 0
2/8/11 10 -11 29.74 67% -6 0
2/7/11 0 -11 29.91 67% -11 0
2/6/11 18 -2 29.88 67% -2 Trace Trace
2/5/11 25 13 29.77 76% 14 Trace Trace
2/4/11 31 20 29.44 80% 24 .33" 2.5"
2/3/11 22 10 29.44 86% 20 Trace Trace
2/2/11 12 -10 29.62 72% 12 0
2/1/11 8 -11 30.09 72% -10 0
 


Home I Trip Planning I Rentals and Outfitting I Reservations I Campgrounds I Sawbill Store I Sawbill News I Contact

© 1997 - 2017, Sawbill Canoe Outfitters, Inc. I Privacy Policy